Etusivu
METAR-TAF:

METAR-TAF

Lentoasemat :

Altus Air Force Base

Altus, Oklahoma, Yhdysvallat

Leveyspiiri: 34-39N, Pituuspiiri: 099-16W, korkeus merenpinnasta: 420 m

Tämänhetkinen sää

Tämä raportti tehtiin 37 minuuttia sitten, kello 17.56 UTC
Tuuli 4 kn etelästä
Lämpötila 7°C
Kosteus 53%
Ilmanpaine 1035 hPa
Näkyvyys: 16.1 km
selkeää

METAR: KLTS 201756Z AUTO 17004KT 10SM CLR 07/M02 A3055 RMK AO2 SLP354 T00711018 10071 21037 58005 $

Aika: 12:33 (18:33 UTC)


TAF: puuttuu

Säähavainnot ja -ennusteet yli 4000 lentoasemalta (METAR- ja TAF-raportit).

Käytössä olevat sääasemat on merkitty karttaan keltaisilla ja punaisilla pisteillä.

Aseta hiiri pisteen päälle nähdäksesi sääaseman nimen.

Klikkaa sitten nähdäksesi säähavainnot ja -ennusteet.

Kartan vaihtaminen: klikkaa mustalla rastilla varustettuja vihreitä pisteitä, niin voit zoomata sisään; viivalla varustettua vihreää pistettä, niin voit zoomata ulos tai vihreitä nuolia, niin pääset viereisille kartoille.


METAR-TAF: